Accueil
METAR-TAF:

METAR-TAF

Aéroports :

Kuala Terengganu, Malaisie

latitude: 05-22-53N, longitude: 103-06-17E, altitude: 6 m

Observation

Le bulletin a été fait il y a 30 minutes, à 23:00 UTC
Vent 2 kt de direction variable
Température 26°C
Humidité 100%
Pression 1006 hPa
Visibilité 10 km ou plus
Quelques nuages à une hauteur de 2200 ft

METAR: WMKN 152300Z VRB02KT 9999 FEW022 26/26 Q1006

Heure: 07:30 (23:30 UTC)

Prévision

Le bulletin a été fait il y a 6 heures et 30 minutes, à 17:00 UTC
Prévision valable du 15 à 18 UTC au 16 à 18 UTC
Vent 3 kt de sud
Visibilité 10 km ou plus
Quelques nuages à une hauteur de 2200 ft

TAF: WMKN 151700Z 1518/1618 17003KT 9999 FEW022

Observations et prévisions météorologiques de plus de 4000 aéroports (messages METAR et TAF).

Les stations disponibles sont représentées par des disques jaunes et rouges sur la carte.

Passer la souris dessus pour voir le nom de la station.

Cliquer dessus pour voir les observations et prévisions météorologiques.

Pour changer de carte: cliquez sur les boutons verts avec une croix noire pour zoomer, sur le bouton vert avec un tiret pour effectuer un zoom arrière, ou sur les flèches vertes pour les cartes adjacentes.


METAR-TAF: